sensor_id;sensor_type;location;lat;lon;timestamp;temperature;humidity
14119;DHT22;7138;49.246;9.100;2023-06-22T00:01:51;19.80;99.90
14119;DHT22;7138;49.246;9.100;2023-06-22T00:04:17;19.70;99.90
14119;DHT22;7138;49.246;9.100;2023-06-22T00:06:43;19.70;99.90
14119;DHT22;7138;49.246;9.100;2023-06-22T00:09:09;19.70;99.90
14119;DHT22;7138;49.246;9.100;2023-06-22T00:11:35;19.70;99.90
14119;DHT22;7138;49.246;9.100;2023-06-22T00:14:02;19.70;99.90
14119;DHT22;7138;49.246;9.100;2023-06-22T00:16:29;19.70;99.90
14119;DHT22;7138;49.246;9.100;2023-06-22T00:18:56;19.70;99.90
14119;DHT22;7138;49.246;9.100;2023-06-22T00:21:25;19.70;99.90
14119;DHT22;7138;49.246;9.100;2023-06-22T00:23:51;19.80;99.90
14119;DHT22;7138;49.246;9.100;2023-06-22T00:26:17;19.80;99.90
14119;DHT22;7138;49.246;9.100;2023-06-22T00:28:43;19.80;99.90
14119;DHT22;7138;49.246;9.100;2023-06-22T00:31:09;19.90;99.90
14119;DHT22;7138;49.246;9.100;2023-06-22T00:33:37;19.80;99.90
14119;DHT22;7138;49.246;9.100;2023-06-22T00:36:03;19.80;99.90
14119;DHT22;7138;49.246;9.100;2023-06-22T00:38:29;19.70;99.90
14119;DHT22;7138;49.246;9.100;2023-06-22T00:40:55;19.60;99.90
14119;DHT22;7138;49.246;9.100;2023-06-22T00:43:21;19.60;99.90
14119;DHT22;7138;49.246;9.100;2023-06-22T00:45:47;19.60;99.90
14119;DHT22;7138;49.246;9.100;2023-06-22T00:48:14;19.60;99.90
14119;DHT22;7138;49.246;9.100;2023-06-22T00:50:41;19.60;99.90
14119;DHT22;7138;49.246;9.100;2023-06-22T00:53:08;19.50;99.90
14119;DHT22;7138;49.246;9.100;2023-06-22T00:55:35;19.50;99.90
14119;DHT22;7138;49.246;9.100;2023-06-22T00:58:06;19.60;99.90
14119;DHT22;7138;49.246;9.100;2023-06-22T01:00:36;19.60;99.90
14119;DHT22;7138;49.246;9.100;2023-06-22T01:03:04;19.60;99.90
14119;DHT22;7138;49.246;9.100;2023-06-22T01:05:34;19.50;99.90
14119;DHT22;7138;49.246;9.100;2023-06-22T01:08:08;19.50;99.90
14119;DHT22;7138;49.246;9.100;2023-06-22T01:10:50;19.50;99.90
14119;DHT22;7138;49.246;9.100;2023-06-22T01:13:26;19.60;99.90
14119;DHT22;7138;49.246;9.100;2023-06-22T01:15:57;19.60;99.90
14119;DHT22;7138;49.246;9.100;2023-06-22T01:18:30;19.80;99.90
14119;DHT22;7138;49.246;9.100;2023-06-22T01:20:58;19.80;99.90
14119;DHT22;7138;49.246;9.100;2023-06-22T01:23:35;19.60;99.90
14119;DHT22;7138;49.246;9.100;2023-06-22T01:26:18;19.50;99.90
14119;DHT22;7138;49.246;9.100;2023-06-22T01:28:51;19.20;99.90
14119;DHT22;7138;49.246;9.100;2023-06-22T01:31:22;19.10;99.90
14119;DHT22;7138;49.246;9.100;2023-06-22T01:34:04;19.00;99.90
14119;DHT22;7138;49.246;9.100;2023-06-22T01:36:32;18.90;99.90
14119;DHT22;7138;49.246;9.100;2023-06-22T01:38:59;18.80;99.90
14119;DHT22;7138;49.246;9.100;2023-06-22T01:41:29;18.70;99.90
14119;DHT22;7138;49.246;9.100;2023-06-22T01:43:59;18.80;99.90
14119;DHT22;7138;49.246;9.100;2023-06-22T01:46:26;18.90;99.90
14119;DHT22;7138;49.246;9.100;2023-06-22T01:48:53;18.90;99.90
14119;DHT22;7138;49.246;9.100;2023-06-22T01:51:19;18.80;99.90
14119;DHT22;7138;49.246;9.100;2023-06-22T01:53:46;18.80;99.90
14119;DHT22;7138;49.246;9.100;2023-06-22T01:56:13;18.80;99.90
14119;DHT22;7138;49.246;9.100;2023-06-22T01:58:48;18.70;99.90
14119;DHT22;7138;49.246;9.100;2023-06-22T02:01:25;18.60;99.90
14119;DHT22;7138;49.246;9.100;2023-06-22T02:04:02;18.60;99.90
14119;DHT22;7138;49.246;9.100;2023-06-22T02:06:34;18.50;99.90
14119;DHT22;7138;49.246;9.100;2023-06-22T02:09:07;18.60;99.90
14119;DHT22;7138;49.246;9.100;2023-06-22T02:11:37;18.60;99.90
14119;DHT22;7138;49.246;9.100;2023-06-22T02:14:05;18.70;99.90
14119;DHT22;7138;49.246;9.100;2023-06-22T02:16:34;18.60;99.90
14119;DHT22;7138;49.246;9.100;2023-06-22T02:19:01;18.60;99.90
14119;DHT22;7138;49.246;9.100;2023-06-22T02:21:32;18.60;99.90
14119;DHT22;7138;49.246;9.100;2023-06-22T02:23:58;18.60;99.90
14119;DHT22;7138;49.246;9.100;2023-06-22T02:26:25;18.60;99.90
14119;DHT22;7138;49.246;9.100;2023-06-22T02:28:52;18.60;99.90
14119;DHT22;7138;49.246;9.100;2023-06-22T02:31:18;18.50;99.90
14119;DHT22;7138;49.246;9.100;2023-06-22T02:33:46;18.50;99.90
14119;DHT22;7138;49.246;9.100;2023-06-22T02:36:13;18.60;99.90
14119;DHT22;7138;49.246;9.100;2023-06-22T02:38:41;18.60;99.90
14119;DHT22;7138;49.246;9.100;2023-06-22T02:41:13;18.50;99.90
14119;DHT22;7138;49.246;9.100;2023-06-22T02:43:43;18.50;99.90
14119;DHT22;7138;49.246;9.100;2023-06-22T02:46:10;18.40;99.90
14119;DHT22;7138;49.246;9.100;2023-06-22T02:48:35;18.40;99.90
14119;DHT22;7138;49.246;9.100;2023-06-22T02:51:03;18.40;99.90
14119;DHT22;7138;49.246;9.100;2023-06-22T02:53:28;18.40;99.90
14119;DHT22;7138;49.246;9.100;2023-06-22T02:55:55;18.40;99.90
14119;DHT22;7138;49.246;9.100;2023-06-22T02:58:21;18.40;99.90
14119;DHT22;7138;49.246;9.100;2023-06-22T03:00:47;18.40;99.90
14119;DHT22;7138;49.246;9.100;2023-06-22T03:03:13;18.40;99.90
14119;DHT22;7138;49.246;9.100;2023-06-22T03:05:38;18.30;99.90
14119;DHT22;7138;49.246;9.100;2023-06-22T03:08:07;18.30;99.90
14119;DHT22;7138;49.246;9.100;2023-06-22T03:10:32;18.20;99.90
14119;DHT22;7138;49.246;9.100;2023-06-22T03:12:58;18.30;99.90
14119;DHT22;7138;49.246;9.100;2023-06-22T03:15:24;18.20;99.90
14119;DHT22;7138;49.246;9.100;2023-06-22T03:17:51;18.10;99.90
14119;DHT22;7138;49.246;9.100;2023-06-22T03:20:16;18.20;99.90
14119;DHT22;7138;49.246;9.100;2023-06-22T03:22:42;18.20;99.90
14119;DHT22;7138;49.246;9.100;2023-06-22T03:25:10;18.20;99.90
14119;DHT22;7138;49.246;9.100;2023-06-22T03:27:38;18.20;99.90
14119;DHT22;7138;49.246;9.100;2023-06-22T03:30:06;18.30;99.90
14119;DHT22;7138;49.246;9.100;2023-06-22T03:32:34;18.30;99.90
14119;DHT22;7138;49.246;9.100;2023-06-22T03:35:00;18.30;99.90
14119;DHT22;7138;49.246;9.100;2023-06-22T03:37:26;18.30;99.90
14119;DHT22;7138;49.246;9.100;2023-06-22T03:39:52;18.30;99.90
14119;DHT22;7138;49.246;9.100;2023-06-22T03:42:19;18.30;99.90
14119;DHT22;7138;49.246;9.100;2023-06-22T03:44:45;18.30;99.90
14119;DHT22;7138;49.246;9.100;2023-06-22T03:47:12;18.30;99.90
14119;DHT22;7138;49.246;9.100;2023-06-22T03:49:38;18.30;99.90
14119;DHT22;7138;49.246;9.100;2023-06-22T03:52:04;18.20;99.90
14119;DHT22;7138;49.246;9.100;2023-06-22T03:54:31;18.30;99.90
14119;DHT22;7138;49.246;9.100;2023-06-22T03:56:57;18.30;99.90
14119;DHT22;7138;49.246;9.100;2023-06-22T03:59:26;18.30;99.90
14119;DHT22;7138;49.246;9.100;2023-06-22T04:01:52;18.30;99.90
14119;DHT22;7138;49.246;9.100;2023-06-22T04:04:18;18.30;99.90
14119;DHT22;7138;49.246;9.100;2023-06-22T04:06:44;18.40;99.90
14119;DHT22;7138;49.246;9.100;2023-06-22T04:09:09;18.50;99.90
14119;DHT22;7138;49.246;9.100;2023-06-22T04:11:35;18.50;99.90
14119;DHT22;7138;49.246;9.100;2023-06-22T04:14:01;18.40;99.90
14119;DHT22;7138;49.246;9.100;2023-06-22T04:16:28;18.40;99.90
14119;DHT22;7138;49.246;9.100;2023-06-22T04:18:54;18.40;99.90
14119;DHT22;7138;49.246;9.100;2023-06-22T04:21:20;18.40;99.90
14119;DHT22;7138;49.246;9.100;2023-06-22T04:23:46;18.40;99.90
14119;DHT22;7138;49.246;9.100;2023-06-22T04:26:12;18.40;99.90
14119;DHT22;7138;49.246;9.100;2023-06-22T04:28:38;18.50;99.90
14119;DHT22;7138;49.246;9.100;2023-06-22T04:31:04;18.50;99.90
14119;DHT22;7138;49.246;9.100;2023-06-22T04:33:32;18.60;99.90
14119;DHT22;7138;49.246;9.100;2023-06-22T04:35:58;18.70;99.90
14119;DHT22;7138;49.246;9.100;2023-06-22T04:38:24;18.80;99.90
14119;DHT22;7138;49.246;9.100;2023-06-22T04:40:50;18.90;99.90
14119;DHT22;7138;49.246;9.100;2023-06-22T04:43:16;18.90;99.90
14119;DHT22;7138;49.246;9.100;2023-06-22T04:45:42;19.00;99.90
14119;DHT22;7138;49.246;9.100;2023-06-22T04:48:08;19.10;99.90
14119;DHT22;7138;49.246;9.100;2023-06-22T04:50:36;19.20;99.90
14119;DHT22;7138;49.246;9.100;2023-06-22T04:53:04;19.30;99.90
14119;DHT22;7138;49.246;9.100;2023-06-22T04:55:31;19.40;99.90
14119;DHT22;7138;49.246;9.100;2023-06-22T04:57:57;19.50;99.90
14119;DHT22;7138;49.246;9.100;2023-06-22T05:00:30;19.60;99.90
14119;DHT22;7138;49.246;9.100;2023-06-22T05:02:57;19.80;99.90
14119;DHT22;7138;49.246;9.100;2023-06-22T05:05:28;19.90;99.90
14119;DHT22;7138;49.246;9.100;2023-06-22T05:07:57;20.30;99.90
14119;DHT22;7138;49.246;9.100;2023-06-22T05:10:25;21.30;99.90
14119;DHT22;7138;49.246;9.100;2023-06-22T05:12:51;21.90;99.90
14119;DHT22;7138;49.246;9.100;2023-06-22T05:15:17;22.40;99.90
14119;DHT22;7138;49.246;9.100;2023-06-22T05:17:45;23.00;99.90
14119;DHT22;7138;49.246;9.100;2023-06-22T05:20:12;23.30;99.90
14119;DHT22;7138;49.246;9.100;2023-06-22T05:22:39;23.30;99.90
14119;DHT22;7138;49.246;9.100;2023-06-22T05:25:09;23.40;99.90
14119;DHT22;7138;49.246;9.100;2023-06-22T05:27:35;23.60;99.90
14119;DHT22;7138;49.246;9.100;2023-06-22T05:30:06;23.80;99.90
14119;DHT22;7138;49.246;9.100;2023-06-22T05:32:33;24.20;99.90
14119;DHT22;7138;49.246;9.100;2023-06-22T05:34:59;24.50;99.90
14119;DHT22;7138;49.246;9.100;2023-06-22T05:37:25;24.70;99.90
14119;DHT22;7138;49.246;9.100;2023-06-22T05:39:51;25.00;99.90
14119;DHT22;7138;49.246;9.100;2023-06-22T05:42:19;25.00;99.90
14119;DHT22;7138;49.246;9.100;2023-06-22T05:44:44;25.30;99.90
14119;DHT22;7138;49.246;9.100;2023-06-22T05:47:10;25.50;99.90
14119;DHT22;7138;49.246;9.100;2023-06-22T05:49:36;25.40;99.90
14119;DHT22;7138;49.246;9.100;2023-06-22T05:52:02;25.00;99.90
14119;DHT22;7138;49.246;9.100;2023-06-22T05:54:29;24.80;99.90
14119;DHT22;7138;49.246;9.100;2023-06-22T05:56:55;25.30;99.90
14119;DHT22;7138;49.246;9.100;2023-06-22T05:59:22;25.60;99.90
14119;DHT22;7138;49.246;9.100;2023-06-22T06:01:48;26.00;99.90
14119;DHT22;7138;49.246;9.100;2023-06-22T06:04:17;26.00;99.90
14119;DHT22;7138;49.246;9.100;2023-06-22T06:06:43;25.80;99.90
14119;DHT22;7138;49.246;9.100;2023-06-22T06:09:08;26.40;99.90
14119;DHT22;7138;49.246;9.100;2023-06-22T06:11:34;26.50;99.90
14119;DHT22;7138;49.246;9.100;2023-06-22T06:14:00;26.50;99.90
14119;DHT22;7138;49.246;9.100;2023-06-22T06:16:27;25.50;99.90
14119;DHT22;7138;49.246;9.100;2023-06-22T06:18:53;26.00;99.90
14119;DHT22;7138;49.246;9.100;2023-06-22T06:21:21;26.10;99.90
14119;DHT22;7138;49.246;9.100;2023-06-22T06:23:47;26.30;99.90
14119;DHT22;7138;49.246;9.100;2023-06-22T06:26:13;27.00;99.90
14119;DHT22;7138;49.246;9.100;2023-06-22T06:28:41;26.90;99.90
14119;DHT22;7138;49.246;9.100;2023-06-22T06:31:07;26.70;99.90
14119;DHT22;7138;49.246;9.100;2023-06-22T06:33:35;26.50;99.90
14119;DHT22;7138;49.246;9.100;2023-06-22T06:36:01;26.90;99.90
14119;DHT22;7138;49.246;9.100;2023-06-22T06:38:29;26.90;99.90
14119;DHT22;7138;49.246;9.100;2023-06-22T06:40:54;26.90;99.90
14119;DHT22;7138;49.246;9.100;2023-06-22T06:43:20;26.50;99.90
14119;DHT22;7138;49.246;9.100;2023-06-22T06:45:46;26.40;99.90
14119;DHT22;7138;49.246;9.100;2023-06-22T06:48:12;26.40;99.90
14119;DHT22;7138;49.246;9.100;2023-06-22T06:50:39;26.00;99.90
14119;DHT22;7138;49.246;9.100;2023-06-22T06:53:05;26.70;99.90
14119;DHT22;7138;49.246;9.100;2023-06-22T06:55:31;26.50;99.90
14119;DHT22;7138;49.246;9.100;2023-06-22T06:57:58;26.70;99.90
14119;DHT22;7138;49.246;9.100;2023-06-22T07:00:25;26.60;99.90
14119;DHT22;7138;49.246;9.100;2023-06-22T07:02:52;26.80;99.90
14119;DHT22;7138;49.246;9.100;2023-06-22T07:05:18;26.80;99.90
14119;DHT22;7138;49.246;9.100;2023-06-22T07:07:45;26.60;99.90
14119;DHT22;7138;49.246;9.100;2023-06-22T07:10:11;26.60;99.90
14119;DHT22;7138;49.246;9.100;2023-06-22T07:12:37;26.40;99.90
14119;DHT22;7138;49.246;9.100;2023-06-22T07:15:04;26.20;99.90
14119;DHT22;7138;49.246;9.100;2023-06-22T07:17:33;26.50;99.90
14119;DHT22;7138;49.246;9.100;2023-06-22T07:20:00;26.20;99.90
14119;DHT22;7138;49.246;9.100;2023-06-22T07:22:26;26.10;99.90
14119;DHT22;7138;49.246;9.100;2023-06-22T07:24:53;26.30;99.90
14119;DHT22;7138;49.246;9.100;2023-06-22T07:27:19;26.30;99.90
14119;DHT22;7138;49.246;9.100;2023-06-22T07:29:46;26.50;99.90
14119;DHT22;7138;49.246;9.100;2023-06-22T07:32:12;26.90;99.90
14119;DHT22;7138;49.246;9.100;2023-06-22T07:34:38;27.30;99.90
14119;DHT22;7138;49.246;9.100;2023-06-22T07:37:04;27.60;99.90
14119;DHT22;7138;49.246;9.100;2023-06-22T07:39:30;27.30;99.90
14119;DHT22;7138;49.246;9.100;2023-06-22T07:41:57;27.30;99.90
14119;DHT22;7138;49.246;9.100;2023-06-22T07:44:23;27.40;99.90
14119;DHT22;7138;49.246;9.100;2023-06-22T07:46:49;27.30;99.90
14119;DHT22;7138;49.246;9.100;2023-06-22T07:49:16;26.80;99.90
14119;DHT22;7138;49.246;9.100;2023-06-22T07:51:42;27.00;99.90
14119;DHT22;7138;49.246;9.100;2023-06-22T07:54:09;27.00;99.90
14119;DHT22;7138;49.246;9.100;2023-06-22T07:56:36;27.70;99.90
14119;DHT22;7138;49.246;9.100;2023-06-22T07:59:03;27.50;99.90
14119;DHT22;7138;49.246;9.100;2023-06-22T08:01:29;27.10;99.90
14119;DHT22;7138;49.246;9.100;2023-06-22T08:03:55;26.60;99.90
14119;DHT22;7138;49.246;9.100;2023-06-22T08:06:21;27.20;99.90
14119;DHT22;7138;49.246;9.100;2023-06-22T08:08:47;27.70;99.90
14119;DHT22;7138;49.246;9.100;2023-06-22T08:11:18;28.30;99.90
14119;DHT22;7138;49.246;9.100;2023-06-22T08:13:44;28.40;99.90
14119;DHT22;7138;49.246;9.100;2023-06-22T08:16:11;27.90;99.90
14119;DHT22;7138;49.246;9.100;2023-06-22T08:18:37;28.30;99.90
14119;DHT22;7138;49.246;9.100;2023-06-22T08:21:03;28.60;99.90
14119;DHT22;7138;49.246;9.100;2023-06-22T08:23:29;28.70;99.90
14119;DHT22;7138;49.246;9.100;2023-06-22T08:25:54;28.00;99.90
14119;DHT22;7138;49.246;9.100;2023-06-22T08:28:21;28.50;99.90
14119;DHT22;7138;49.246;9.100;2023-06-22T08:30:47;28.70;99.90
14119;DHT22;7138;49.246;9.100;2023-06-22T08:33:14;28.70;99.90
14119;DHT22;7138;49.246;9.100;2023-06-22T08:35:40;28.50;99.90
14119;DHT22;7138;49.246;9.100;2023-06-22T08:38:06;28.70;99.90
14119;DHT22;7138;49.246;9.100;2023-06-22T08:40:31;28.50;99.90
14119;DHT22;7138;49.246;9.100;2023-06-22T08:42:58;28.80;99.90
14119;DHT22;7138;49.246;9.100;2023-06-22T08:45:23;28.80;99.90
14119;DHT22;7138;49.246;9.100;2023-06-22T08:47:49;29.30;99.90
14119;DHT22;7138;49.246;9.100;2023-06-22T08:50:17;29.40;99.90
14119;DHT22;7138;49.246;9.100;2023-06-22T08:52:42;29.70;99.90
14119;DHT22;7138;49.246;9.100;2023-06-22T08:55:09;29.60;99.90
14119;DHT22;7138;49.246;9.100;2023-06-22T08:57:36;29.70;99.90
14119;DHT22;7138;49.246;9.100;2023-06-22T09:00:07;29.90;99.90
14119;DHT22;7138;49.246;9.100;2023-06-22T09:02:52;29.50;99.90
14119;DHT22;7138;49.246;9.100;2023-06-22T09:05:19;29.30;99.90
14119;DHT22;7138;49.246;9.100;2023-06-22T09:07:47;29.30;99.90
14119;DHT22;7138;49.246;9.100;2023-06-22T09:10:13;29.00;99.90
14119;DHT22;7138;49.246;9.100;2023-06-22T09:12:39;28.30;99.90
14119;DHT22;7138;49.246;9.100;2023-06-22T09:15:06;28.50;99.90
14119;DHT22;7138;49.246;9.100;2023-06-22T09:17:33;28.30;99.90
14119;DHT22;7138;49.246;9.100;2023-06-22T09:19:59;28.40;99.90
14119;DHT22;7138;49.246;9.100;2023-06-22T09:22:27;28.80;99.90
14119;DHT22;7138;49.246;9.100;2023-06-22T09:24:54;28.50;99.90
14119;DHT22;7138;49.246;9.100;2023-06-22T09:27:21;28.40;99.90
14119;DHT22;7138;49.246;9.100;2023-06-22T09:29:47;28.20;99.90
14119;DHT22;7138;49.246;9.100;2023-06-22T09:32:13;28.40;99.90
14119;DHT22;7138;49.246;9.100;2023-06-22T09:34:39;28.30;99.90
14119;DHT22;7138;49.246;9.100;2023-06-22T09:37:05;28.50;99.90
14119;DHT22;7138;49.246;9.100;2023-06-22T09:39:32;29.10;99.90
14119;DHT22;7138;49.246;9.100;2023-06-22T09:41:59;29.40;99.90
14119;DHT22;7138;49.246;9.100;2023-06-22T09:44:28;29.20;99.90
14119;DHT22;7138;49.246;9.100;2023-06-22T09:46:54;29.10;99.90
14119;DHT22;7138;49.246;9.100;2023-06-22T09:49:19;29.50;99.90
14119;DHT22;7138;49.246;9.100;2023-06-22T09:51:45;29.80;99.90
14119;DHT22;7138;49.246;9.100;2023-06-22T09:54:11;30.10;99.90
14119;DHT22;7138;49.246;9.100;2023-06-22T09:56:38;30.10;99.90
14119;DHT22;7138;49.246;9.100;2023-06-22T09:59:04;29.70;99.90
14119;DHT22;7138;49.246;9.100;2023-06-22T10:01:30;30.10;99.90
14119;DHT22;7138;49.246;9.100;2023-06-22T10:03:56;30.50;99.90
14119;DHT22;7138;49.246;9.100;2023-06-22T10:06:22;30.50;99.90
14119;DHT22;7138;49.246;9.100;2023-06-22T10:08:49;30.80;99.90
14119;DHT22;7138;49.246;9.100;2023-06-22T10:11:15;30.20;99.90
14119;DHT22;7138;49.246;9.100;2023-06-22T10:13:42;30.00;99.90
14119;DHT22;7138;49.246;9.100;2023-06-22T10:16:08;30.70;99.90
14119;DHT22;7138;49.246;9.100;2023-06-22T10:18:34;30.80;99.90
14119;DHT22;7138;49.246;9.100;2023-06-22T10:21:00;30.70;99.90
14119;DHT22;7138;49.246;9.100;2023-06-22T10:23:26;30.20;99.90
14119;DHT22;7138;49.246;9.100;2023-06-22T10:25:51;30.00;99.90
14119;DHT22;7138;49.246;9.100;2023-06-22T10:28:17;30.40;99.90
14119;DHT22;7138;49.246;9.100;2023-06-22T10:30:44;30.60;99.90
14119;DHT22;7138;49.246;9.100;2023-06-22T10:33:11;30.80;99.90
14119;DHT22;7138;49.246;9.100;2023-06-22T10:35:37;30.60;99.90
14119;DHT22;7138;49.246;9.100;2023-06-22T10:38:04;30.70;99.90
14119;DHT22;7138;49.246;9.100;2023-06-22T10:40:31;30.50;99.90
14119;DHT22;7138;49.246;9.100;2023-06-22T10:43:00;29.90;99.90
14119;DHT22;7138;49.246;9.100;2023-06-22T10:45:25;29.90;99.90
14119;DHT22;7138;49.246;9.100;2023-06-22T10:47:54;30.00;99.90
14119;DHT22;7138;49.246;9.100;2023-06-22T10:50:19;29.80;99.90
14119;DHT22;7138;49.246;9.100;2023-06-22T10:52:45;29.70;99.90
14119;DHT22;7138;49.246;9.100;2023-06-22T10:55:11;29.60;99.90
14119;DHT22;7138;49.246;9.100;2023-06-22T10:57:37;29.60;99.90
14119;DHT22;7138;49.246;9.100;2023-06-22T11:00:08;29.70;99.90
14119;DHT22;7138;49.246;9.100;2023-06-22T11:02:34;29.80;99.90
14119;DHT22;7138;49.246;9.100;2023-06-22T11:05:01;29.90;99.90
14119;DHT22;7138;49.246;9.100;2023-06-22T11:07:29;30.30;99.90
14119;DHT22;7138;49.246;9.100;2023-06-22T11:09:55;30.50;99.90
14119;DHT22;7138;49.246;9.100;2023-06-22T11:12:21;30.70;99.90
14119;DHT22;7138;49.246;9.100;2023-06-22T11:14:47;30.50;99.90
14119;DHT22;7138;49.246;9.100;2023-06-22T11:17:13;30.30;99.90
14119;DHT22;7138;49.246;9.100;2023-06-22T11:19:38;29.90;99.90
14119;DHT22;7138;49.246;9.100;2023-06-22T11:22:06;29.80;99.90
14119;DHT22;7138;49.246;9.100;2023-06-22T11:24:32;29.80;99.90
14119;DHT22;7138;49.246;9.100;2023-06-22T11:26:58;29.60;99.90
14119;DHT22;7138;49.246;9.100;2023-06-22T11:29:24;29.50;99.90
14119;DHT22;7138;49.246;9.100;2023-06-22T11:31:49;29.50;99.90
14119;DHT22;7138;49.246;9.100;2023-06-22T11:34:15;29.60;99.90
14119;DHT22;7138;49.246;9.100;2023-06-22T11:36:41;29.80;99.90
14119;DHT22;7138;49.246;9.100;2023-06-22T11:39:09;29.80;99.90
14119;DHT22;7138;49.246;9.100;2023-06-22T11:41:35;29.70;99.90
14119;DHT22;7138;49.246;9.100;2023-06-22T11:44:01;29.90;99.90
14119;DHT22;7138;49.246;9.100;2023-06-22T11:46:27;30.30;99.90
14119;DHT22;7138;49.246;9.100;2023-06-22T11:48:52;30.30;99.90
14119;DHT22;7138;49.246;9.100;2023-06-22T11:51:18;30.20;99.90
14119;DHT22;7138;49.246;9.100;2023-06-22T11:53:44;30.40;99.90
14119;DHT22;7138;49.246;9.100;2023-06-22T11:56:11;30.20;99.90
14119;DHT22;7138;49.246;9.100;2023-06-22T11:58:37;30.20;99.90
14119;DHT22;7138;49.246;9.100;2023-06-22T12:01:03;30.40;99.90
14119;DHT22;7138;49.246;9.100;2023-06-22T12:03:30;30.40;99.90
14119;DHT22;7138;49.246;9.100;2023-06-22T12:05:56;30.50;99.90
14119;DHT22;7138;49.246;9.100;2023-06-22T12:08:22;30.30;99.90
14119;DHT22;7138;49.246;9.100;2023-06-22T12:10:49;30.00;99.90
14119;DHT22;7138;49.246;9.100;2023-06-22T12:13:17;29.80;99.90
14119;DHT22;7138;49.246;9.100;2023-06-22T12:15:43;29.50;99.90
14119;DHT22;7138;49.246;9.100;2023-06-22T12:18:09;29.30;99.90
14119;DHT22;7138;49.246;9.100;2023-06-22T12:20:35;29.40;99.90
14119;DHT22;7138;49.246;9.100;2023-06-22T12:23:01;29.50;99.90
14119;DHT22;7138;49.246;9.100;2023-06-22T12:25:27;29.50;99.90
14119;DHT22;7138;49.246;9.100;2023-06-22T12:27:53;29.50;99.90
14119;DHT22;7138;49.246;9.100;2023-06-22T12:30:20;29.40;99.90
14119;DHT22;7138;49.246;9.100;2023-06-22T12:32:46;29.30;99.90
14119;DHT22;7138;49.246;9.100;2023-06-22T12:35:12;29.10;99.90
14119;DHT22;7138;49.246;9.100;2023-06-22T12:37:40;29.00;99.90
14119;DHT22;7138;49.246;9.100;2023-06-22T12:40:07;29.00;99.90
14119;DHT22;7138;49.246;9.100;2023-06-22T12:42:33;28.90;99.90
14119;DHT22;7138;49.246;9.100;2023-06-22T12:44:59;29.00;99.90
14119;DHT22;7138;49.246;9.100;2023-06-22T12:47:26;29.10;99.90
14119;DHT22;7138;49.246;9.100;2023-06-22T12:49:52;29.00;99.90
14119;DHT22;7138;49.246;9.100;2023-06-22T12:52:18;29.10;99.90
14119;DHT22;7138;49.246;9.100;2023-06-22T12:54:44;29.20;99.90
14119;DHT22;7138;49.246;9.100;2023-06-22T12:57:10;29.40;99.90
14119;DHT22;7138;49.246;9.100;2023-06-22T12:59:36;29.40;99.90
14119;DHT22;7138;49.246;9.100;2023-06-22T13:02:02;29.60;99.90
14119;DHT22;7138;49.246;9.100;2023-06-22T13:04:29;29.70;99.90
14119;DHT22;7138;49.246;9.100;2023-06-22T13:06:55;30.10;99.90
14119;DHT22;7138;49.246;9.100;2023-06-22T13:09:20;30.20;99.90
14119;DHT22;7138;49.246;9.100;2023-06-22T13:11:46;30.30;99.90
14119;DHT22;7138;49.246;9.100;2023-06-22T13:14:12;30.20;99.90
14119;DHT22;7138;49.246;9.100;2023-06-22T13:16:38;30.20;99.90
14119;DHT22;7138;49.246;9.100;2023-06-22T13:19:04;30.30;99.90
14119;DHT22;7138;49.246;9.100;2023-06-22T13:21:31;30.30;99.90
14119;DHT22;7138;49.246;9.100;2023-06-22T13:23:59;30.20;99.90
14119;DHT22;7138;49.246;9.100;2023-06-22T13:26:25;30.20;99.90
14119;DHT22;7138;49.246;9.100;2023-06-22T13:28:52;30.10;99.90
14119;DHT22;7138;49.246;9.100;2023-06-22T13:31:18;30.20;99.90
14119;DHT22;7138;49.246;9.100;2023-06-22T13:33:44;30.10;99.90
14119;DHT22;7138;49.246;9.100;2023-06-22T13:36:13;30.10;99.90
14119;DHT22;7138;49.246;9.100;2023-06-22T13:38:40;30.20;99.90
14119;DHT22;7138;49.246;9.100;2023-06-22T13:41:06;30.20;99.90
14119;DHT22;7138;49.246;9.100;2023-06-22T13:43:32;30.20;99.90
14119;DHT22;7138;49.246;9.100;2023-06-22T13:45:58;30.50;99.90
14119;DHT22;7138;49.246;9.100;2023-06-22T13:48:23;30.60;99.90
14119;DHT22;7138;49.246;9.100;2023-06-22T13:50:51;30.80;99.90
14119;DHT22;7138;49.246;9.100;2023-06-22T13:53:17;30.80;99.90
14119;DHT22;7138;49.246;9.100;2023-06-22T13:55:44;31.00;99.90
14119;DHT22;7138;49.246;9.100;2023-06-22T13:58:10;31.00;99.90
14119;DHT22;7138;49.246;9.100;2023-06-22T14:00:36;31.20;99.90
14119;DHT22;7138;49.246;9.100;2023-06-22T14:03:02;30.70;99.90
14119;DHT22;7138;49.246;9.100;2023-06-22T14:05:28;30.90;99.90
14119;DHT22;7138;49.246;9.100;2023-06-22T14:07:54;31.10;99.90
14119;DHT22;7138;49.246;9.100;2023-06-22T14:10:20;31.10;99.90
14119;DHT22;7138;49.246;9.100;2023-06-22T14:12:47;31.20;99.90
14119;DHT22;7138;49.246;9.100;2023-06-22T14:15:12;31.50;99.90
14119;DHT22;7138;49.246;9.100;2023-06-22T14:17:38;31.20;99.90
14119;DHT22;7138;49.246;9.100;2023-06-22T14:20:05;31.30;99.90
14119;DHT22;7138;49.246;9.100;2023-06-22T14:22:33;31.50;99.90
14119;DHT22;7138;49.246;9.100;2023-06-22T14:25:00;31.60;99.90
14119;DHT22;7138;49.246;9.100;2023-06-22T14:27:26;31.60;99.90
14119;DHT22;7138;49.246;9.100;2023-06-22T14:29:54;31.60;99.90
14119;DHT22;7138;49.246;9.100;2023-06-22T14:32:20;31.60;99.90
14119;DHT22;7138;49.246;9.100;2023-06-22T14:34:45;31.60;99.90
14119;DHT22;7138;49.246;9.100;2023-06-22T14:37:11;31.60;99.90
14119;DHT22;7138;49.246;9.100;2023-06-22T14:39:38;31.80;99.90
14119;DHT22;7138;49.246;9.100;2023-06-22T14:42:05;32.00;99.90
14119;DHT22;7138;49.246;9.100;2023-06-22T14:44:31;31.70;99.90
14119;DHT22;7138;49.246;9.100;2023-06-22T14:46:58;31.60;99.90
14119;DHT22;7138;49.246;9.100;2023-06-22T14:49:24;31.70;99.90
14119;DHT22;7138;49.246;9.100;2023-06-22T14:51:50;31.70;99.90
14119;DHT22;7138;49.246;9.100;2023-06-22T14:54:16;31.40;99.90
14119;DHT22;7138;49.246;9.100;2023-06-22T14:56:42;31.10;99.90
14119;DHT22;7138;49.246;9.100;2023-06-22T14:59:09;30.80;99.90
14119;DHT22;7138;49.246;9.100;2023-06-22T15:01:35;30.60;99.90
14119;DHT22;7138;49.246;9.100;2023-06-22T15:04:02;30.60;99.90
14119;DHT22;7138;49.246;9.100;2023-06-22T15:06:28;30.40;99.90
14119;DHT22;7138;49.246;9.100;2023-06-22T15:08:54;30.30;99.90
14119;DHT22;7138;49.246;9.100;2023-06-22T15:11:20;30.30;99.90
14119;DHT22;7138;49.246;9.100;2023-06-22T15:13:46;30.30;99.90
14119;DHT22;7138;49.246;9.100;2023-06-22T15:16:12;30.20;99.90
14119;DHT22;7138;49.246;9.100;2023-06-22T15:18:38;30.10;99.90
14119;DHT22;7138;49.246;9.100;2023-06-22T15:21:07;30.00;99.90
14119;DHT22;7138;49.246;9.100;2023-06-22T15:23:34;29.90;99.90
14119;DHT22;7138;49.246;9.100;2023-06-22T15:26:02;29.90;99.90
14119;DHT22;7138;49.246;9.100;2023-06-22T15:28:30;30.00;99.90
14119;DHT22;7138;49.246;9.100;2023-06-22T15:30:57;30.10;99.90
14119;DHT22;7138;49.246;9.100;2023-06-22T15:33:24;30.20;99.90
14119;DHT22;7138;49.246;9.100;2023-06-22T15:35:51;30.40;99.90
14119;DHT22;7138;49.246;9.100;2023-06-22T15:38:19;30.50;99.90
14119;DHT22;7138;49.246;9.100;2023-06-22T15:40:45;30.40;99.90
14119;DHT22;7138;49.246;9.100;2023-06-22T15:43:11;30.40;99.90